createdAt,value
2019-01-02T00:00:19.196Z,1005.80
2019-01-02T00:01:19.177Z,1005.76
2019-01-02T00:02:19.144Z,1005.78
2019-01-02T00:03:19.125Z,1005.67
2019-01-02T00:04:19.101Z,1005.79
2019-01-02T00:05:19.076Z,1005.80
2019-01-02T00:06:19.047Z,1005.82
2019-01-02T00:07:19.028Z,1005.77
2019-01-02T00:08:19.002Z,1005.80
2019-01-02T00:09:18.977Z,1005.80
2019-01-02T00:10:18.946Z,1005.86
2019-01-02T00:11:18.929Z,1005.83
2019-01-02T00:12:18.897Z,1005.84
2019-01-02T00:13:18.875Z,1005.81
2019-01-02T00:14:18.849Z,1005.85
2019-01-02T00:15:18.830Z,1005.82
2019-01-02T00:16:18.849Z,1005.84
2019-01-02T00:17:18.772Z,1005.87
2019-01-02T00:18:18.753Z,1005.89
2019-01-02T00:19:18.725Z,1005.89
2019-01-02T00:20:18.699Z,1005.90
2019-01-02T00:21:18.680Z,1005.80
2019-01-02T00:22:18.658Z,1005.90
2019-01-02T00:23:18.622Z,1005.88
2019-01-02T00:24:18.600Z,1005.81
2019-01-02T00:25:18.574Z,1005.74
2019-01-02T00:26:18.552Z,1005.79
2019-01-02T00:27:18.530Z,1005.82
2019-01-02T00:28:18.504Z,1005.74
2019-01-02T00:29:18.476Z,1005.76
2019-01-02T00:30:18.456Z,1005.78
2019-01-02T00:31:18.428Z,1005.70
2019-01-02T00:32:18.411Z,1005.65
2019-01-02T00:33:18.384Z,1005.71
2019-01-02T00:34:18.364Z,1005.68
2019-01-02T00:35:18.333Z,1005.72
2019-01-02T00:36:18.304Z,1005.72
2019-01-02T00:37:18.279Z,1005.76
2019-01-02T00:38:18.273Z,1005.78
2019-01-02T00:39:18.237Z,1005.86
2019-01-02T00:40:18.205Z,1005.87
2019-01-02T00:41:18.179Z,1005.80
2019-01-02T00:42:18.160Z,1005.86
2019-01-02T00:43:18.138Z,1005.91
2019-01-02T00:44:18.108Z,1005.93
2019-01-02T00:45:22.314Z,1005.92
2019-01-02T00:46:18.055Z,1005.95
2019-01-02T00:47:18.033Z,1006.01
2019-01-02T00:48:18.008Z,1006.02
2019-01-02T00:49:17.982Z,1005.99
2019-01-02T00:50:17.962Z,1006.08
2019-01-02T00:51:17.937Z,1006.08
2019-01-02T00:52:17.907Z,1006.10
2019-01-02T00:53:17.882Z,1006.10
2019-01-02T00:54:17.866Z,1006.06
2019-01-02T00:55:17.833Z,1006.09
2019-01-02T00:56:17.816Z,1006.09
2019-01-02T00:57:17.785Z,1006.06
2019-01-02T00:58:17.760Z,1006.07
2019-01-02T00:59:17.742Z,1006.08
2019-01-02T01:00:17.712Z,1006.11
2019-01-02T01:01:17.684Z,1006.13
2019-01-02T01:02:17.662Z,1006.15
2019-01-02T01:03:17.640Z,1006.21
2019-01-02T01:04:17.612Z,1006.16
2019-01-02T01:05:17.593Z,1006.15
2019-01-02T01:06:17.563Z,1006.19
2019-01-02T01:07:17.541Z,1006.13
2019-01-02T01:08:17.515Z,1006.14
2019-01-02T01:09:17.488Z,1006.13
2019-01-02T01:10:17.463Z,1006.11
2019-01-02T01:11:17.444Z,1006.14
2019-01-02T01:12:17.418Z,1006.14
2019-01-02T01:13:17.396Z,1006.16
2019-01-02T01:14:17.368Z,1006.19
2019-01-02T01:15:17.344Z,1006.26
2019-01-02T01:16:17.321Z,1006.29
2019-01-02T01:17:17.292Z,1006.30
2019-01-02T01:18:17.276Z,1006.24
2019-01-02T01:19:17.251Z,1006.32
2019-01-02T01:20:17.220Z,1006.27
2019-01-02T01:21:17.196Z,1006.35
2019-01-02T01:22:17.171Z,1006.36
2019-01-02T01:23:17.146Z,1006.38
2019-01-02T01:24:17.119Z,1006.40
2019-01-02T01:25:17.094Z,1006.43
2019-01-02T01:26:17.077Z,1006.47
2019-01-02T01:27:17.052Z,1006.50
2019-01-02T01:28:17.027Z,1006.48
2019-01-02T01:29:17.000Z,1006.52
2019-01-02T01:30:16.972Z,1006.55
2019-01-02T01:31:16.950Z,1006.58
2019-01-02T01:32:16.924Z,1006.60
2019-01-02T01:33:16.901Z,1006.61
2019-01-02T01:34:16.879Z,1006.60
2019-01-02T01:35:16.850Z,1006.64
2019-01-02T01:36:16.825Z,1006.67
2019-01-02T01:37:16.798Z,1006.65
2019-01-02T01:38:16.777Z,1006.72
2019-01-02T01:39:16.757Z,1006.73
2019-01-02T01:40:16.732Z,1006.79
2019-01-02T01:41:16.705Z,1006.74
2019-01-02T01:42:16.679Z,1006.74
2019-01-02T01:43:16.653Z,1006.70
2019-01-02T01:44:16.635Z,1006.73
2019-01-02T01:45:16.609Z,1006.69
2019-01-02T01:46:16.581Z,1006.72
2019-01-02T01:47:16.554Z,1006.70
2019-01-02T01:48:16.535Z,1006.68
2019-01-02T01:49:16.507Z,1006.74
2019-01-02T01:50:16.487Z,1006.72
2019-01-02T01:51:16.460Z,1006.86
2019-01-02T01:52:16.442Z,1006.87
2019-01-02T01:53:16.418Z,1006.83
2019-01-02T01:54:16.387Z,1006.86
2019-01-02T01:55:16.360Z,1006.87
2019-01-02T01:56:16.335Z,1006.88
2019-01-02T01:57:16.312Z,1006.89
2019-01-02T01:58:16.294Z,1006.89
2019-01-02T01:59:16.271Z,1006.85
2019-01-02T02:00:16.239Z,1006.87
2019-01-02T02:01:16.213Z,1006.82
2019-01-02T02:02:16.191Z,1006.87
2019-01-02T02:03:16.169Z,1006.85
2019-01-02T02:04:16.143Z,1006.81
2019-01-02T02:05:16.119Z,1006.80
2019-01-02T02:06:16.092Z,1006.83
2019-01-02T02:07:16.071Z,1006.85
2019-01-02T02:08:16.044Z,1006.81
2019-01-02T02:09:16.019Z,1006.84
2019-01-02T02:10:15.993Z,1006.80
2019-01-02T02:11:15.972Z,1006.79
2019-01-02T02:12:15.946Z,1006.84
2019-01-02T02:13:15.919Z,1006.85
2019-01-02T02:14:15.897Z,1006.84
2019-01-02T02:15:15.879Z,1006.84
2019-01-02T02:16:15.854Z,1006.89
2019-01-02T02:17:15.825Z,1006.86
2019-01-02T02:18:15.799Z,1006.89
2019-01-02T02:19:15.773Z,1006.89
2019-01-02T02:20:15.748Z,1006.90
2019-01-02T02:21:15.722Z,1006.89
2019-01-02T02:22:15.701Z,1006.96
2019-01-02T02:23:15.677Z,1006.94
2019-01-02T02:24:15.651Z,1006.99
2019-01-02T02:25:15.627Z,1007.01
2019-01-02T02:26:15.601Z,1006.98
2019-01-02T02:27:15.576Z,1006.95
2019-01-02T02:28:15.556Z,1006.91
2019-01-02T02:29:15.531Z,1006.89
2019-01-02T02:30:15.521Z,1006.89
2019-01-02T02:31:15.485Z,1006.92
2019-01-02T02:32:15.453Z,1006.92
2019-01-02T02:33:15.434Z,1006.87
2019-01-02T02:34:15.405Z,1006.87
2019-01-02T02:35:15.379Z,1006.83
2019-01-02T02:36:15.354Z,1006.80
2019-01-02T02:37:15.335Z,1006.76
2019-01-02T02:38:15.312Z,1006.74
2019-01-02T02:39:15.281Z,1006.78
2019-01-02T02:40:15.255Z,1006.79
2019-01-02T02:41:15.240Z,1006.84
2019-01-02T02:42:15.208Z,1006.83
2019-01-02T02:43:15.187Z,1006.83
2019-01-02T02:44:15.160Z,1006.85
2019-01-02T02:45:15.139Z,1006.83
2019-01-02T02:46:15.112Z,1006.79
2019-01-02T02:47:15.092Z,1006.82
2019-01-02T02:48:15.066Z,1006.85
2019-01-02T02:49:15.038Z,1006.88
2019-01-02T02:50:15.014Z,1006.85
2019-01-02T02:51:14.999Z,1006.86
2019-01-02T02:52:14.964Z,1006.86
2019-01-02T02:53:14.938Z,1006.88
2019-01-02T02:54:14.919Z,1006.87
2019-01-02T02:55:14.902Z,1006.90
2019-01-02T02:56:14.867Z,1006.91
2019-01-02T02:57:14.848Z,1006.89
2019-01-02T02:58:14.822Z,1006.89
2019-01-02T02:59:14.793Z,1006.87
2019-01-02T03:00:14.768Z,1006.88
2019-01-02T03:01:14.742Z,1006.92
2019-01-02T03:02:14.726Z,1006.98
2019-01-02T03:03:14.697Z,1007.00
2019-01-02T03:04:14.668Z,1006.96
2019-01-02T03:05:14.646Z,1007.02
2019-01-02T03:06:14.620Z,1007.00
2019-01-02T03:07:14.594Z,1007.13
2019-01-02T03:08:14.563Z,1007.12
2019-01-02T03:09:14.547Z,1007.21
2019-01-02T03:10:14.528Z,1007.22
2019-01-02T03:11:14.504Z,1007.18
2019-01-02T03:12:14.473Z,1007.15
2019-01-02T03:13:14.447Z,1007.05
2019-01-02T03:14:14.425Z,1006.97
2019-01-02T03:15:14.405Z,1006.92
2019-01-02T03:16:14.373Z,1006.87
2019-01-02T03:17:14.351Z,1007.06
2019-01-02T03:18:14.326Z,1006.95
2019-01-02T03:19:14.308Z,1006.95
2019-01-02T03:20:14.289Z,1006.98
2019-01-02T03:21:14.250Z,1006.99
2019-01-02T03:22:14.238Z,1007.03
2019-01-02T03:23:14.205Z,1007.04
2019-01-02T03:24:14.181Z,1007.07
2019-01-02T03:25:14.161Z,1007.10
2019-01-02T03:26:14.136Z,1007.09
2019-01-02T03:27:14.104Z,1007.06
2019-01-02T03:28:14.078Z,1006.99
2019-01-02T03:29:14.064Z,1006.95
2019-01-02T03:30:14.044Z,1006.96
2019-01-02T03:31:14.006Z,1006.92
2019-01-02T03:32:13.986Z,1006.91
2019-01-02T03:33:13.958Z,1006.90
2019-01-02T03:34:13.933Z,1006.88
2019-01-02T03:35:13.915Z,1006.87
2019-01-02T03:36:13.884Z,1006.92
2019-01-02T03:37:13.864Z,1006.86
2019-01-02T03:38:13.836Z,1006.91
2019-01-02T03:39:13.813Z,1006.88
2019-01-02T03:40:13.786Z,1006.88
2019-01-02T03:41:13.767Z,1006.91
2019-01-02T03:42:13.743Z,1006.88
2019-01-02T03:43:13.711Z,1006.85
2019-01-02T03:44:13.686Z,1006.87
2019-01-02T03:45:13.667Z,1006.86
2019-01-02T03:46:13.638Z,1006.85
2019-01-02T03:47:13.614Z,1006.85
2019-01-02T03:48:13.593Z,1006.93
2019-01-02T03:49:13.606Z,1006.90
2019-01-02T03:50:13.538Z,1007.02
2019-01-02T03:51:13.513Z,1006.94
2019-01-02T03:52:13.489Z,1006.95
2019-01-02T03:53:13.474Z,1007.03
2019-01-02T03:54:13.441Z,1007.11
2019-01-02T03:55:13.422Z,1007.05
2019-01-02T03:56:13.391Z,1007.06
2019-01-02T03:57:13.374Z,1007.04
2019-01-02T03:58:13.345Z,1007.09
2019-01-02T03:59:13.323Z,1007.03
2019-01-02T04:00:13.297Z,1007.01
2019-01-02T04:01:13.265Z,1006.96
2019-01-02T04:02:13.250Z,1006.96
2019-01-02T04:03:13.224Z,1007.00
2019-01-02T04:04:13.203Z,1007.03
2019-01-02T04:05:13.170Z,1007.02
2019-01-02T04:06:13.149Z,1007.07
2019-01-02T04:07:13.125Z,1007.05
2019-01-02T04:08:13.096Z,1007.02
2019-01-02T04:09:13.077Z,1007.04
2019-01-02T04:10:13.063Z,1006.98
2019-01-02T04:11:13.028Z,1006.97
2019-01-02T04:12:13.002Z,1006.98
2019-01-02T04:13:12.971Z,1007.07
2019-01-02T04:14:12.945Z,1007.01
2019-01-02T04:15:12.929Z,1007.03
2019-01-02T04:16:12.906Z,1007.09
2019-01-02T04:17:12.873Z,1007.09
2019-01-02T04:18:12.856Z,1007.08
2019-01-02T04:19:12.829Z,1007.02
2019-01-02T04:20:12.799Z,1007.00
2019-01-02T04:21:12.783Z,1006.96
2019-01-02T04:22:12.756Z,1006.90
2019-01-02T04:23:12.726Z,1006.95
2019-01-02T04:24:12.702Z,1006.94
2019-01-02T04:25:12.683Z,1006.89
2019-01-02T04:26:12.651Z,1006.99
2019-01-02T04:27:12.629Z,1007.03
2019-01-02T04:28:12.606Z,1007.02
2019-01-02T04:29:12.584Z,1006.99
2019-01-02T04:30:12.562Z,1006.95
2019-01-02T04:31:12.530Z,1006.93
2019-01-02T04:32:12.504Z,1006.95
2019-01-02T04:33:12.484Z,1007.00
2019-01-02T04:34:12.455Z,1007.01
2019-01-02T04:35:12.441Z,1007.04
2019-01-02T04:36:12.418Z,1007.06
2019-01-02T04:37:12.404Z,1007.11
2019-01-02T04:38:12.379Z,1007.10
2019-01-02T04:39:12.334Z,1007.09
2019-01-02T04:40:12.308Z,1006.97
2019-01-02T04:41:12.289Z,1007.05
2019-01-02T04:42:12.260Z,1007.04
2019-01-02T04:43:12.241Z,1007.06
2019-01-02T04:44:12.215Z,1006.98
2019-01-02T04:45:12.183Z,1007.13
2019-01-02T04:46:12.168Z,1007.09
2019-01-02T04:47:12.138Z,1007.18
2019-01-02T04:48:12.116Z,1007.22
2019-01-02T04:49:12.088Z,1007.27
2019-01-02T04:50:12.068Z,1007.32
2019-01-02T04:51:12.039Z,1007.21
2019-01-02T04:52:12.010Z,1007.29
2019-01-02T04:53:11.989Z,1007.30
2019-01-02T04:54:11.966Z,1007.27
2019-01-02T04:55:11.957Z,1007.21
2019-01-02T04:56:11.914Z,1007.23
2019-01-02T04:57:11.894Z,1007.25
2019-01-02T04:58:11.871Z,1007.23
2019-01-02T04:59:11.839Z,1007.23
2019-01-02T05:00:11.814Z,1007.21
2019-01-02T05:01:11.798Z,1007.24
2019-01-02T05:02:11.771Z,1007.26
2019-01-02T05:03:11.747Z,1007.34
2019-01-02T05:04:11.721Z,1007.29
2019-01-02T05:05:11.699Z,1007.32
2019-01-02T05:06:11.667Z,1007.30
2019-01-02T05:07:11.642Z,1007.28
2019-01-02T05:08:11.616Z,1007.28
2019-01-02T05:09:11.596Z,1007.26
2019-01-02T05:10:11.572Z,1007.34
2019-01-02T05:11:11.546Z,1007.31
2019-01-02T05:12:11.525Z,1007.37
2019-01-02T05:13:11.536Z,1007.34
2019-01-02T05:14:11.479Z,1007.40
2019-01-02T05:15:11.446Z,1007.40
2019-01-02T05:16:11.421Z,1007.42
2019-01-02T05:17:11.396Z,1007.37
2019-01-02T05:18:11.369Z,1007.32
2019-01-02T05:19:11.353Z,1007.32
2019-01-02T05:20:11.326Z,1007.34
2019-01-02T05:21:11.299Z,1007.25
2019-01-02T05:22:11.272Z,1007.33
2019-01-02T05:23:11.255Z,1007.30
2019-01-02T05:24:11.229Z,1007.30
2019-01-02T05:25:11.199Z,1007.37
2019-01-02T05:26:11.181Z,1007.31
2019-01-02T05:27:11.162Z,1007.35
2019-01-02T05:28:11.127Z,1007.37
2019-01-02T05:29:11.107Z,1007.36
2019-01-02T05:30:11.412Z,1007.39
2019-01-02T05:31:11.057Z,1007.39
2019-01-02T05:32:11.033Z,1007.43
2019-01-02T05:33:11.000Z,1007.42
2019-01-02T05:34:10.981Z,1007.37
2019-01-02T05:35:10.959Z,1007.40
2019-01-02T05:36:10.937Z,1007.47
2019-01-02T05:37:10.921Z,1007.41
2019-01-02T05:38:10.883Z,1007.47
2019-01-02T05:39:10.854Z,1007.45
2019-01-02T05:40:10.838Z,1007.49
2019-01-02T05:41:10.809Z,1007.48
2019-01-02T05:42:10.786Z,1007.48
2019-01-02T05:43:10.761Z,1007.42
2019-01-02T05:44:10.732Z,1007.45
2019-01-02T05:45:10.710Z,1007.40
2019-01-02T05:46:10.688Z,1007.35
2019-01-02T05:47:10.677Z,1007.47
2019-01-02T05:48:10.632Z,1007.46
2019-01-02T05:49:10.606Z,1007.44
2019-01-02T05:50:10.583Z,1007.51
2019-01-02T05:51:10.555Z,1007.48
2019-01-02T05:52:10.540Z,1007.53
2019-01-02T05:53:10.511Z,1007.45
2019-01-02T05:54:10.483Z,1007.37
2019-01-02T05:55:10.467Z,1007.41
2019-01-02T05:56:10.441Z,1007.42
2019-01-02T05:57:10.416Z,1007.32
2019-01-02T05:58:10.395Z,1007.38
2019-01-02T05:59:10.368Z,1007.37
2019-01-02T06:00:10.337Z,1007.39
2019-01-02T06:01:10.323Z,1007.31
2019-01-02T06:02:10.287Z,1007.36
2019-01-02T06:03:10.268Z,1007.37
2019-01-02T06:04:10.257Z,1007.35
2019-01-02T06:05:10.223Z,1007.40
2019-01-02T06:06:10.204Z,1007.41
2019-01-02T06:07:10.172Z,1007.48
2019-01-02T06:08:10.140Z,1007.49
2019-01-02T06:09:10.129Z,1007.50
2019-01-02T06:10:10.091Z,1007.48
2019-01-02T06:11:10.072Z,1007.49
2019-01-02T06:12:10.069Z,1007.49
2019-01-02T06:13:10.024Z,1007.47
2019-01-02T06:14:09.992Z,1007.49
2019-01-02T06:15:09.969Z,1007.48
2019-01-02T06:16:09.944Z,1007.47
2019-01-02T06:17:09.921Z,1007.49
2019-01-02T06:18:09.899Z,1007.50
2019-01-02T06:19:09.870Z,1007.48
2019-01-02T06:20:09.848Z,1007.48
2019-01-02T06:21:09.828Z,1007.48
2019-01-02T06:22:09.796Z,1007.46
2019-01-02T06:23:09.776Z,1007.43
2019-01-02T06:24:09.765Z,1007.44
2019-01-02T06:25:09.737Z,1007.44
2019-01-02T06:26:09.704Z,1007.45
2019-01-02T06:27:09.675Z,1007.46
2019-01-02T06:28:09.653Z,1007.45
2019-01-02T06:29:09.633Z,1007.45
2019-01-02T06:30:09.605Z,1007.45
2019-01-02T06:31:09.583Z,1007.49
2019-01-02T06:32:09.554Z,1007.52
2019-01-02T06:33:09.534Z,1007.50
2019-01-02T06:34:09.507Z,1007.56
2019-01-02T06:35:09.485Z,1007.58
2019-01-02T06:36:09.457Z,1007.58
2019-01-02T06:37:09.457Z,1007.56
2019-01-02T06:38:09.409Z,1007.56
2019-01-02T06:39:09.383Z,1007.58
2019-01-02T06:40:09.366Z,1007.60
2019-01-02T06:41:09.341Z,1007.60
2019-01-02T06:42:09.310Z,1007.65
2019-01-02T06:43:09.285Z,1007.67
2019-01-02T06:44:09.261Z,1007.69
2019-01-02T06:45:09.237Z,1007.73
2019-01-02T06:46:09.218Z,1007.69
2019-01-02T06:47:09.189Z,1007.72
2019-01-02T06:48:09.176Z,1007.76
2019-01-02T06:49:09.157Z,1007.76
2019-01-02T06:50:09.120Z,1007.72
2019-01-02T06:51:09.120Z,1007.75
2019-01-02T06:52:09.074Z,1007.74
2019-01-02T06:53:09.042Z,1007.74
2019-01-02T06:54:09.019Z,1007.71
2019-01-02T06:55:08.991Z,1007.73
2019-01-02T06:56:08.971Z,1007.73
2019-01-02T06:57:08.949Z,1007.76
2019-01-02T06:58:08.917Z,1007.81
2019-01-02T06:59:08.895Z,1007.79
2019-01-02T07:00:08.873Z,1007.81
2019-01-02T07:01:08.848Z,1007.80
2019-01-02T07:02:08.830Z,1007.84
2019-01-02T07:03:08.799Z,1007.81
2019-01-02T07:04:08.774Z,1007.83
2019-01-02T07:05:08.747Z,1007.87
2019-01-02T07:06:08.726Z,1007.85
2019-01-02T07:07:08.712Z,1007.86
2019-01-02T07:08:08.672Z,1007.90
2019-01-02T07:09:08.656Z,1007.95
2019-01-02T07:10:08.633Z,1007.95
2019-01-02T07:11:08.605Z,1007.91
2019-01-02T07:12:08.576Z,1007.96
2019-01-02T07:13:08.551Z,1007.98
2019-01-02T07:14:08.532Z,1007.99
2019-01-02T07:15:08.504Z,1008.03
2019-01-02T07:16:08.477Z,1007.97
2019-01-02T07:17:08.459Z,1008.00
2019-01-02T07:18:08.430Z,1008.04
2019-01-02T07:19:08.404Z,1008.09
2019-01-02T07:20:08.385Z,1008.12
2019-01-02T07:21:08.356Z,1008.09
2019-01-02T07:22:08.334Z,1008.13
2019-01-02T07:23:08.307Z,1008.14
2019-01-02T07:24:08.285Z,1008.14
2019-01-02T07:25:08.260Z,1008.13
2019-01-02T07:26:08.234Z,1008.17
2019-01-02T07:27:08.211Z,1008.15
2019-01-02T07:28:08.186Z,1008.29
2019-01-02T07:29:08.170Z,1008.26
2019-01-02T07:30:08.138Z,1008.30
2019-01-02T07:31:08.118Z,1008.26
2019-01-02T07:32:08.088Z,1008.29
2019-01-02T07:33:08.065Z,1008.30
2019-01-02T07:34:08.047Z,1008.32
2019-01-02T07:35:08.021Z,1008.33
2019-01-02T07:36:07.989Z,1008.34
2019-01-02T07:37:07.970Z,1008.32
2019-01-02T07:38:07.941Z,1008.36
2019-01-02T07:39:07.925Z,1008.33
2019-01-02T07:40:07.892Z,1008.33
2019-01-02T07:41:07.867Z,1008.28
2019-01-02T07:42:07.851Z,1008.28
2019-01-02T07:43:07.862Z,1008.27
2019-01-02T07:44:07.794Z,1008.34
2019-01-02T07:45:07.773Z,1008.35
2019-01-02T07:46:07.748Z,1008.38
2019-01-02T07:47:07.729Z,1008.40
2019-01-02T07:48:07.706Z,1008.36
2019-01-02T07:49:07.677Z,1008.34
2019-01-02T07:50:07.652Z,1008.43
2019-01-02T07:51:07.629Z,1008.40
2019-01-02T07:52:07.598Z,1008.43
2019-01-02T07:53:07.580Z,1008.39
2019-01-02T07:54:07.549Z,1008.39
2019-01-02T07:55:07.527Z,1008.38
2019-01-02T07:56:07.508Z,1008.40
2019-01-02T07:57:07.475Z,1008.37
2019-01-02T07:58:07.453Z,1008.46
2019-01-02T07:59:07.434Z,1008.44
2019-01-02T08:00:07.402Z,1008.45
2019-01-02T08:01:07.379Z,1008.50
2019-01-02T08:02:07.360Z,1008.51
2019-01-02T08:03:07.331Z,1008.51
2019-01-02T08:04:07.305Z,1008.56
2019-01-02T08:05:07.280Z,1008.46
2019-01-02T08:06:07.268Z,1008.54
2019-01-02T08:07:07.232Z,1008.55
2019-01-02T08:08:07.210Z,1008.50
2019-01-02T08:09:07.184Z,1008.52
2019-01-02T08:10:07.159Z,1008.59
2019-01-02T08:11:07.139Z,1008.61
2019-01-02T08:12:07.112Z,1008.55
2019-01-02T08:13:07.083Z,1008.58
2019-01-02T08:14:07.060Z,1008.58
2019-01-02T08:15:07.041Z,1008.59
2019-01-02T08:16:07.019Z,1008.55
2019-01-02T08:17:06.987Z,1008.56
2019-01-02T08:18:06.964Z,1008.58
2019-01-02T08:19:06.941Z,1008.66
2019-01-02T08:20:06.913Z,1008.61
2019-01-02T08:21:06.889Z,1008.65
2019-01-02T08:22:06.869Z,1008.65
2019-01-02T08:23:06.841Z,1008.67
2019-01-02T08:24:06.815Z,1008.69
2019-01-02T08:25:06.798Z,1008.72
2019-01-02T08:26:06.774Z,1008.76
2019-01-02T08:27:06.741Z,1008.78
2019-01-02T08:28:06.774Z,1008.77
2019-01-02T08:29:06.693Z,1008.81
2019-01-02T08:30:06.671Z,1008.78
2019-01-02T08:31:06.645Z,1008.78
2019-01-02T08:32:06.633Z,1008.84
2019-01-02T08:33:06.604Z,1008.84
2019-01-02T08:34:06.578Z,1008.82
2019-01-02T08:35:06.566Z,1008.84
2019-01-02T08:36:06.530Z,1008.83
2019-01-02T08:37:06.507Z,1008.86
2019-01-02T08:38:06.476Z,1008.87
2019-01-02T08:39:06.470Z,1008.88
2019-01-02T08:40:06.425Z,1008.89
2019-01-02T08:41:06.400Z,1008.89
2019-01-02T08:42:06.384Z,1008.93
2019-01-02T08:43:06.361Z,1008.94
2019-01-02T08:44:06.330Z,1008.93
2019-01-02T08:45:06.302Z,1008.95
2019-01-02T08:46:06.279Z,1008.92
2019-01-02T08:47:06.254Z,1008.92
2019-01-02T08:48:06.235Z,1008.90
2019-01-02T08:49:06.215Z,1008.91
2019-01-02T08:50:06.180Z,1008.91
2019-01-02T08:51:06.154Z,1008.90
2019-01-02T08:52:06.135Z,1008.90
2019-01-02T08:53:06.113Z,1008.96
2019-01-02T08:54:06.154Z,1008.94
2019-01-02T08:58:41.701Z,1009.00
2019-01-02T08:59:41.666Z,1008.98
2019-01-02T09:00:41.637Z,1008.96
2019-01-02T09:01:41.637Z,1008.95
2019-01-02T09:02:41.589Z,1008.96
2019-01-02T09:03:41.598Z,1009.01
2019-01-02T09:04:41.541Z,1009.01
2019-01-02T09:05:41.515Z,1009.06
2019-01-02T09:06:41.496Z,1009.16
2019-01-02T09:07:41.469Z,1009.19
2019-01-02T09:08:41.446Z,1009.17
2019-01-02T09:09:41.415Z,1009.15
2019-01-02T09:10:41.396Z,1009.13
2019-01-02T09:11:41.368Z,1009.14
2019-01-02T09:12:41.342Z,1009.16
2019-01-02T09:13:41.316Z,1009.13
2019-01-02T09:14:41.296Z,1009.13
2019-01-02T09:15:41.269Z,1009.06
2019-01-02T09:16:41.241Z,1009.08
2019-01-02T09:17:41.225Z,1009.08
2019-01-02T09:18:41.200Z,1009.08
2019-01-02T09:19:41.175Z,1009.11
2019-01-02T09:20:41.152Z,1009.15
2019-01-02T09:21:41.120Z,1009.11
2019-01-02T09:22:41.104Z,1009.13
2019-01-02T09:23:41.088Z,1009.11
2019-01-02T09:24:41.047Z,1009.10
2019-01-02T09:25:41.021Z,1009.08
2019-01-02T09:26:40.999Z,1009.14
2019-01-02T09:27:40.973Z,1009.17
2019-01-02T09:28:40.957Z,1009.18
2019-01-02T09:29:40.925Z,1009.18
2019-01-02T09:30:40.900Z,1009.18
2019-01-02T09:31:40.883Z,1009.17
2019-01-02T09:32:40.851Z,1009.21
2019-01-02T09:33:40.845Z,1009.17
2019-01-02T09:34:40.806Z,1009.26
2019-01-02T09:35:40.801Z,1009.21
2019-01-02T09:36:40.755Z,1009.22
2019-01-02T09:37:40.734Z,1009.23
2019-01-02T09:38:40.705Z,1009.22
2019-01-02T09:39:40.681Z,1009.18
2019-01-02T09:40:40.731Z,1009.16
2019-01-02T09:41:40.632Z,1009.16
2019-01-02T09:42:40.616Z,1009.16
2019-01-02T09:43:40.591Z,1009.18
2019-01-02T09:44:40.558Z,1009.21
2019-01-02T09:45:40.542Z,1009.23
2019-01-02T09:46:40.517Z,1009.25
2019-01-02T09:47:40.493Z,1009.24
2019-01-02T09:48:40.470Z,1009.28
2019-01-02T09:49:40.438Z,1009.32
2019-01-02T09:50:40.415Z,1009.30
2019-01-02T09:51:40.389Z,1009.34
2019-01-02T09:52:40.367Z,1009.36
2019-01-02T09:53:40.348Z,1009.35
2019-01-02T09:54:40.319Z,1009.35
2019-01-02T09:55:40.300Z,1009.33
2019-01-02T09:56:40.285Z,1009.23
2019-01-02T09:57:40.246Z,1009.18
2019-01-02T09:58:40.223Z,1009.13
2019-01-02T09:59:40.198Z,1009.12
2019-01-02T10:00:40.182Z,1009.11
2019-01-02T10:01:40.159Z,1009.06
2019-01-02T10:02:40.153Z,1009.15
2019-01-02T10:03:40.102Z,1009.13
2019-01-02T10:04:40.086Z,1009.21
2019-01-02T10:05:40.060Z,1009.25
2019-01-02T10:06:40.032Z,1009.26
2019-01-02T10:07:40.013Z,1009.31
2019-01-02T10:08:39.987Z,1009.34
2019-01-02T10:09:39.971Z,1009.33
2019-01-02T10:10:39.942Z,1009.40
2019-01-02T10:11:39.911Z,1009.34
2019-01-02T10:12:39.894Z,1009.32
2019-01-02T10:13:39.870Z,1009.33
2019-01-02T10:14:39.851Z,1009.33
2019-01-02T10:15:39.830Z,1009.35
2019-01-02T10:16:39.806Z,1009.29
2019-01-02T10:17:39.784Z,1009.32
2019-01-02T10:18:39.752Z,1009.29
2019-01-02T10:19:39.733Z,1009.27
2019-01-02T10:20:43.837Z,1009.31
2019-01-02T10:21:39.694Z,1009.28
2019-01-02T10:22:39.659Z,1009.28
2019-01-02T10:23:39.638Z,1009.20
2019-01-02T10:24:39.618Z,1009.21
2019-01-02T10:25:39.598Z,1009.24
2019-01-02T10:26:39.567Z,1009.28
2019-01-02T10:27:39.548Z,1009.25
2019-01-02T10:28:39.522Z,1009.31
2019-01-02T10:29:39.505Z,1009.30
2019-01-02T10:30:39.484Z,1009.30
2019-01-02T10:31:39.460Z,1009.33
2019-01-02T10:32:39.428Z,1009.25
2019-01-02T10:33:39.417Z,1009.28
2019-01-02T10:34:39.383Z,1009.28
2019-01-02T10:35:39.358Z,1009.29
2019-01-02T10:36:39.342Z,1009.24
2019-01-02T10:37:39.316Z,1009.26
2019-01-02T10:38:39.299Z,1009.24
2019-01-02T10:39:39.266Z,1009.22
2019-01-02T10:40:39.244Z,1009.20
2019-01-02T10:41:39.222Z,1009.24
2019-01-02T10:42:39.202Z,1009.18
2019-01-02T10:43:39.185Z,1009.23
2019-01-02T10:44:39.154Z,1009.15
2019-01-02T10:45:39.129Z,1009.26
2019-01-02T10:46:39.112Z,1009.26
2019-01-02T10:47:39.080Z,1009.30
2019-01-02T10:48:39.067Z,1009.24
2019-01-02T10:49:39.040Z,1009.27
2019-01-02T10:50:39.019Z,1009.32
2019-01-02T10:51:38.994Z,1009.37
2019-01-02T10:52:38.968Z,1009.41
2019-01-02T10:53:38.942Z,1009.30
2019-01-02T10:54:38.923Z,1009.46
2019-01-02T10:55:38.900Z,1009.47
2019-01-02T10:56:38.872Z,1009.53
2019-01-02T10:57:38.852Z,1009.56
2019-01-02T10:58:38.821Z,1009.64
2019-01-02T10:59:38.801Z,1009.60
2019-01-02T11:00:38.775Z,1009.62
2019-01-02T11:01:38.753Z,1009.62
2019-01-02T11:02:38.737Z,1009.61
2019-01-02T11:03:38.711Z,1009.63
2019-01-02T11:04:38.682Z,1009.73
2019-01-02T11:05:38.657Z,1009.69
2019-01-02T11:06:38.637Z,1009.66
2019-01-02T11:07:38.615Z,1009.71
2019-01-02T11:08:38.592Z,1009.64
2019-01-02T11:09:38.571Z,1009.62
2019-01-02T11:10:38.545Z,1009.60
2019-01-02T11:11:38.522Z,1009.55
2019-01-02T11:12:38.490Z,1009.53
2019-01-02T11:13:38.471Z,1009.54
2019-01-02T11:14:38.445Z,1009.57
2019-01-02T11:15:38.426Z,1009.60
2019-01-02T11:16:38.404Z,1009.57
2019-01-02T11:17:38.374Z,1009.54
2019-01-02T11:18:38.356Z,1009.53
2019-01-02T11:19:38.330Z,1009.52
2019-01-02T11:20:38.306Z,1009.48
2019-01-02T11:21:38.283Z,1009.50
2019-01-02T11:22:38.272Z,1009.50
2019-01-02T11:23:38.229Z,1009.54
2019-01-02T11:24:38.207Z,1009.49
2019-01-02T11:25:38.191Z,1009.44
2019-01-02T11:26:38.165Z,1009.43
2019-01-02T11:27:38.137Z,1009.37
2019-01-02T11:28:38.114Z,1009.39
2019-01-02T11:29:38.096Z,1009.42
2019-01-02T11:30:38.070Z,1009.49
2019-01-02T11:31:38.041Z,1009.46
2019-01-02T11:32:38.027Z,1009.46
2019-01-02T11:33:38.001Z,1009.48
2019-01-02T11:34:37.976Z,1009.47
2019-01-02T11:35:37.946Z,1009.42
2019-01-02T11:36:37.930Z,1009.44
2019-01-02T11:37:37.901Z,1009.39
2019-01-02T11:38:37.878Z,1009.40
2019-01-02T11:39:37.863Z,1009.36
2019-01-02T11:40:37.832Z,1009.45
2019-01-02T11:41:37.818Z,1009.41
2019-01-02T11:42:37.783Z,1009.43
2019-01-02T11:43:37.767Z,1009.43
2019-01-02T11:44:37.738Z,1009.41
2019-01-02T11:45:37.715Z,1009.38
2019-01-02T11:46:37.693Z,1009.33
2019-01-02T11:47:37.668Z,1009.36
2019-01-02T11:48:37.648Z,1009.35
2019-01-02T11:49:37.655Z,1009.41
2019-01-02T11:50:37.620Z,1009.45
2019-01-02T11:51:37.581Z,1009.36
2019-01-02T11:52:37.562Z,1009.37
2019-01-02T11:53:37.536Z,1009.37
2019-01-02T11:54:37.517Z,1009.36
2019-01-02T11:55:37.490Z,1009.35
2019-01-02T11:56:37.474Z,1009.34
2019-01-02T11:57:37.445Z,1009.36
2019-01-02T11:58:37.424Z,1009.43
2019-01-02T11:59:37.400Z,1009.35
2019-01-02T12:00:37.395Z,1009.35
2019-01-02T12:01:37.374Z,1009.35
2019-01-02T12:02:37.343Z,1009.30
2019-01-02T12:03:37.317Z,1009.34
2019-01-02T12:04:37.302Z,1009.35
2019-01-02T12:05:37.273Z,1009.32
2019-01-02T12:06:37.256Z,1009.37
2019-01-02T12:07:37.238Z,1009.34
2019-01-02T12:08:37.215Z,1009.26